Time;durP1;ratioP1;P1;durP2;ratioP2;P2;SDS_P1;SDS_P2;PMS_P1;PMS_P2;Temp;Humidity;BMP_temperature;BMP_pressure;BME280_temperature;BME280_humidity;BME280_pressure;Samples;Min_cycle;Max_cycle;Signal;HPM_P1;HPM_P2
2021/04/02 00:00:59;;;;;;;48.95;24.43;;;;;;;9.97;69.02;98506.42;1756468;81;21133;-69
2021/04/02 00:03:33;;;;;;;44.50;23.22;;;;;;;9.94;68.93;98502.41;1789255;79;21103;-69
2021/04/02 00:06:02;;;;;;;46.77;23.20;;;;;;;9.96;68.77;98503.45;1756446;81;21138;-69
2021/04/02 00:08:30;;;;;;;43.00;22.07;;;;;;;9.94;68.84;98488.14;1789318;80;23498;-69
2021/04/02 00:11:05;;;;;;;44.15;21.68;;;;;;;9.93;69.00;98476.14;1756371;81;21439;-68
2021/04/02 00:13:39;;;;;;;41.00;20.80;;;;;;;9.93;69.00;98482.42;1789316;80;21028;-67
2021/04/02 00:16:09;;;;;;;45.17;22.25;;;;;;;9.90;69.19;98483.09;1756378;81;21862;-67
2021/04/02 00:18:38;;;;;;;38.15;21.07;;;;;;;9.91;69.21;98487.44;1789349;80;21011;-66
2021/04/02 00:21:09;;;;;;;41.05;20.65;;;;;;;9.89;69.29;98480.12;1756399;81;21391;-67
2021/04/02 00:23:36;;;;;;;41.80;21.17;;;;;;;9.88;69.73;98484.00;1789211;80;21021;-67
2021/04/02 00:26:08;;;;;;;43.33;22.65;;;;;;;9.82;69.89;98485.34;1756460;81;21386;-67
2021/04/02 00:28:36;;;;;;;;;;;;;;;9.77;70.21;98494.38;1791992;80;21850;-66
2021/04/02 00:31:03;;;;;;;42.25;19.55;;;;;;;9.70;70.59;98503.70;1759720;81;20274;-66
2021/04/02 00:33:32;;;;;;;38.25;19.50;;;;;;;9.58;70.81;98501.70;1759621;81;21140;-67
2021/04/02 00:36:00;;;;;;;41.63;19.50;;;;;;;9.51;71.09;98500.86;1759662;81;21412;-66
2021/04/02 00:38:29;;;;;;;32.78;17.92;;;;;;;9.50;71.17;98491.61;1759697;81;21787;-66
2021/04/02 00:41:01;;;;;;;36.65;19.82;;;;;;;9.48;71.37;98482.92;1759730;81;21165;-66
2021/04/02 00:43:37;;;;;;;36.63;19.42;;;;;;;9.44;71.66;98475.94;1759528;80;21206;-67
2021/04/02 00:46:06;;;;;;;38.15;18.42;;;;;;;9.41;71.90;98471.13;1741921;81;21207;-67
2021/04/02 00:48:35;;;;;;;32.40;18.42;;;;;;;9.37;72.05;98463.34;1759579;81;21151;-67
2021/04/02 00:51:07;;;;;;;38.75;18.87;;;;;;;9.35;72.31;98461.50;1759510;80;21922;-67
2021/04/02 00:53:38;;;;;;;34.98;17.00;;;;;;;9.30;72.41;98452.11;1757448;81;21124;-66
2021/04/02 00:56:07;;;;;;;35.23;18.45;;;;;;;9.28;72.61;98445.59;1759769;81;21121;-67
2021/04/02 00:58:35;;;;;;;29.10;15.63;;;;;;;9.27;72.77;98434.41;1759617;81;21251;-66
2021/04/02 01:01:05;;;;;;;31.93;17.20;;;;;;;9.24;72.93;98437.81;1759608;81;21427;-66
2021/04/02 01:03:35;;;;;;;28.45;15.75;;;;;;;9.25;72.94;98427.09;1757484;81;21431;-67
2021/04/02 01:06:06;;;;;;;26.97;15.45;;;;;;;9.32;72.82;98423.02;1750186;81;21145;-66
2021/04/02 01:08:36;;;;;;;31.75;16.20;;;;;;;9.37;72.65;98423.63;1750340;81;21468;-67
2021/04/02 01:11:17;;;;;;;28.55;16.95;;;;;;;9.39;72.48;98413.13;1750257;81;21366;-67
2021/04/02 01:13:47;;;;;;;29.48;17.12;;;;;;;9.41;72.32;98405.38;1750180;81;21400;-67
2021/04/02 01:16:29;;;;;;;31.33;18.15;;;;;;;9.40;72.26;98402.41;1750409;81;21832;-67
2021/04/02 01:19:16;;;;;;;35.90;19.95;;;;;;;9.40;72.12;98398.30;1749087;81;21728;-66
2021/04/02 01:21:51;;;;;;;38.67;21.15;;;;;;;9.37;72.06;98397.60;1750252;81;21113;-66
2021/04/02 01:24:34;;;;;;;43.92;20.55;;;;;;;9.35;71.97;98389.48;1750184;81;21194;-66
2021/04/02 01:27:31;;;;;;;29.87;17.45;;;;;;;9.34;71.76;98379.67;1750246;81;21859;-66
2021/04/02 01:30:05;;;;;;;26.85;16.67;;;;;;;9.32;71.24;98377.83;1750233;81;21137;-66
2021/04/02 01:32:38;;;;;;;27.98;15.25;;;;;;;9.32;70.57;98377.27;1750162;81;21979;-66
2021/04/02 01:35:21;;;;;;;26.52;14.95;;;;;;;9.33;70.11;98373.95;1737464;81;21385;-66
2021/04/02 01:37:54;;;;;;;25.00;14.47;;;;;;;9.35;69.60;98362.09;1738020;81;22487;-67
2021/04/02 01:40:24;;;;;;;30.20;15.18;;;;;;;9.37;68.78;98368.84;1750219;81;21376;-67
2021/04/02 01:42:52;;;;;;;25.02;13.98;;;;;;;9.40;68.65;98361.89;1750171;81;21478;-66
2021/04/02 01:45:21;;;;;;;26.82;14.38;;;;;;;9.41;68.47;98358.02;1736936;81;21415;-67
2021/04/02 01:47:49;;;;;;;31.02;15.83;;;;;;;9.39;68.15;98353.44;1736981;81;21399;-67
2021/04/02 01:50:18;;;;;;;29.42;16.42;;;;;;;9.39;68.09;98361.66;1750164;81;21387;-67
2021/04/02 01:52:46;;;;;;;26.75;15.03;;;;;;;9.36;68.06;98361.77;1737097;81;21396;-67
2021/04/02 01:55:15;;;;;;;30.60;16.62;;;;;;;9.34;67.86;98365.97;1750228;81;21128;-67
2021/04/02 01:57:45;;;;;;;31.10;16.40;;;;;;;9.30;67.98;98359.00;1750167;81;21041;-67
2021/04/02 02:00:31;;;;;;;31.55;15.48;;;;;;;9.24;68.25;98350.19;1737423;81;21887;-67
2021/04/02 02:03:00;;;;;;;30.25;16.10;;;;;;;9.20;68.43;98345.75;1736997;81;21692;-67
2021/04/02 02:05:30;;;;;;;28.00;15.55;;;;;;;9.13;68.47;98346.28;1741863;81;21136;-67
2021/04/02 02:08:00;;;;;;;27.10;15.60;;;;;;;9.09;68.49;98341.25;1759596;81;21145;-67
2021/04/02 02:10:28;;;;;;;30.17;16.60;;;;;;;9.04;68.60;98344.19;1759342;81;21885;-67
2021/04/02 02:12:57;;;;;;;35.15;17.37;;;;;;;8.99;68.62;98343.02;1759491;81;21398;-67
2021/04/02 02:15:41;;;;;;;29.98;16.42;;;;;;;8.99;68.89;98340.28;1884540;76;22722;-67
2021/04/02 02:18:14;;;;;;;29.70;16.67;;;;;;;8.89;69.03;98340.67;1771495;80;20982;-67
2021/04/02 02:20:43;;;;;;;37.30;17.02;;;;;;;8.84;69.09;98345.78;1741583;81;21277;-67
2021/04/02 02:23:12;;;;;;;30.55;16.32;;;;;;;8.79;69.21;98347.91;1743098;80;21025;-67
2021/04/02 02:25:40;;;;;;;33.33;17.35;;;;;;;8.74;69.26;98337.97;1770180;81;21304;-67
2021/04/02 02:28:08;;;;;;;32.65;16.90;;;;;;;8.71;69.35;98341.93;1771438;80;21406;-67
2021/04/02 02:30:38;;;;;;;30.62;16.10;;;;;;;8.67;69.36;98331.42;1770211;81;21013;-67
2021/04/02 02:33:19;;;;;;;35.47;16.80;;;;;;;8.64;69.33;98333.48;1770466;80;22499;-67
2021/04/02 02:35:53;;;;;;;28.52;16.97;;;;;;;8.60;69.31;98328.67;1769386;81;20975;-67
2021/04/02 02:38:22;;;;;;;31.07;18.40;;;;;;;8.55;69.19;98317.92;1771445;80;21315;-67
2021/04/02 02:40:51;;;;;;;31.15;17.20;;;;;;;8.54;68.92;98311.42;1770042;81;21410;-67
2021/04/02 02:43:20;;;;;;;35.52;17.62;;;;;;;8.53;68.89;98323.49;1771505;80;21403;-66
2021/04/02 02:45:49;;;;;;;30.12;17.70;;;;;;;8.51;68.79;98315.62;1771445;80;21433;-67
2021/04/02 02:48:17;;;;;;;31.52;18.55;;;;;;;8.48;68.73;98303.17;1742079;81;21454;-67
2021/04/02 02:50:53;;;;;;;32.03;17.07;;;;;;;8.46;68.65;98312.27;1770126;80;21288;-66
2021/04/02 02:53:25;;;;;;;39.05;19.07;;;;;;;8.44;68.83;98301.66;1752161;81;21165;-66
2021/04/02 02:55:55;;;;;;;34.92;17.60;;;;;;;8.41;68.58;98302.33;1704325;82;21142;-66
2021/04/02 02:58:25;;;;;;;34.53;18.85;;;;;;;8.40;68.66;98303.46;1724324;81;21479;-66
2021/04/02 03:00:55;;;;;;;37.78;18.95;;;;;;;8.38;68.62;98293.42;1703922;82;21414;-66
2021/04/02 03:03:23;;;;;;;35.90;18.60;;;;;;;8.36;68.60;98291.58;1752319;81;21920;-66
2021/04/02 03:05:52;;;;;;;34.40;18.73;;;;;;;8.35;68.52;98298.18;1730345;82;21137;-65
2021/04/02 03:08:23;;;;;;;37.67;19.57;;;;;;;8.33;68.53;98298.28;1751641;81;21168;-66
2021/04/02 03:10:51;;;;;;;41.18;19.25;;;;;;;8.30;68.56;98294.24;1703295;82;21149;-66
2021/04/02 03:13:20;;;;;;;35.73;19.05;;;;;;;8.28;68.57;98303.34;1752213;81;21930;-66
2021/04/02 03:15:48;;;;;;;32.60;17.95;;;;;;;8.26;68.65;98292.73;1703390;82;21146;-65
2021/04/02 03:18:19;;;;;;;34.88;18.98;;;;;;;8.25;68.63;98300.70;1752151;81;21771;-66
2021/04/02 03:20:49;;;;;;;39.05;20.25;;;;;;;8.22;68.79;98302.73;1730511;82;21436;-66
2021/04/02 03:23:18;;;;;;;36.65;18.70;;;;;;;8.20;68.90;98302.82;1752261;81;21434;-66
2021/04/02 03:25:47;;;;;;;32.20;17.85;;;;;;;8.18;68.83;98311.92;1703009;82;21879;-66
2021/04/02 03:28:17;;;;;;;35.03;19.15;;;;;;;8.15;68.92;98320.21;1724275;81;21877;-66
2021/04/02 03:30:48;;;;;;;40.25;19.30;;;;;;;8.14;69.02;98303.57;1751893;81;21835;-66
2021/04/02 03:33:24;;;;;;;36.88;20.48;;;;;;;8.11;68.81;98299.33;1748505;82;21895;-66
2021/04/02 03:36:08;;;;;;;40.28;20.10;;;;;;;8.11;68.92;98298.77;1886170;76;22938;-67
2021/04/02 03:38:38;;;;;;;37.90;21.37;;;;;;;8.06;68.97;98298.18;1857298;77;21804;-68
2021/04/02 03:41:14;;;;;;;40.00;22.02;;;;;;;8.03;68.87;98296.91;1856916;77;21257;-66
2021/04/02 03:43:43;;;;;;;42.98;21.27;;;;;;;8.03;68.92;98294.73;1856147;77;20991;-67
2021/04/02 03:46:12;;;;;;;42.98;22.05;;;;;;;8.03;68.96;98307.03;1771256;77;20977;-67
2021/04/02 03:48:41;;;;;;;47.33;22.77;;;;;;;8.01;69.04;98293.70;1824039;77;21018;-67
2021/04/02 03:51:10;;;;;;;42.67;22.70;;;;;;;8.00;68.92;98290.73;1846962;77;21109;-67
2021/04/02 03:53:41;;;;;;;43.30;22.37;;;;;;;8.00;69.07;98291.30;1762757;78;21206;-66
2021/04/02 03:56:14;;;;;;;49.38;25.25;;;;;;;8.00;69.08;98287.20;1823294;78;20959;-66
2021/04/02 03:58:45;;;;;;;44.70;23.60;;;;;;;8.00;69.09;98289.93;1823154;78;21006;-67
2021/04/02 04:01:20;;;;;;;41.98;23.75;;;;;;;8.00;69.06;98285.83;1792094;78;21159;-67
2021/04/02 04:03:49;;;;;;;44.45;24.40;;;;;;;7.99;69.19;98281.49;1823262;78;21387;-68
2021/04/02 04:06:20;;;;;;;47.62;24.57;;;;;;;7.99;69.18;98285.03;1823256;78;21972;-69
2021/04/02 04:08:56;;;;;;;48.45;25.55;;;;;;;7.99;69.29;98276.03;1823189;78;21129;-69
2021/04/02 04:15:03;;;;;;;45.78;23.32;;;;;;;7.98;69.38;98279.33;1823209;78;21030;-67
2021/04/02 04:17:34;;;;;;;43.25;23.30;;;;;;;7.97;69.48;98271.45;1822963;78;21282;-67
2021/04/02 04:20:07;;;;;;;42.55;22.65;;;;;;;7.96;69.50;98274.75;1823213;78;21418;-67
2021/04/02 04:22:39;;;;;;;39.08;21.45;;;;;;;7.95;69.58;98268.48;1822202;78;21149;-67
2021/04/02 04:25:08;;;;;;;38.35;20.85;;;;;;;7.94;69.61;98266.08;1823194;78;21002;-67
2021/04/02 04:27:41;;;;;;;37.45;20.37;;;;;;;7.97;69.68;98261.89;1823314;78;21345;-67
2021/04/02 04:30:12;;;;;;;34.03;19.10;;;;;;;7.98;69.62;98264.86;1792598;78;21117;-67
2021/04/02 04:32:41;;;;;;;39.70;20.80;;;;;;;7.98;69.70;98262.13;1823554;78;21370;-67
2021/04/02 04:35:15;;;;;;;43.20;20.48;;;;;;;7.99;69.84;98266.47;1824571;78;21880;-67
2021/04/02 04:37:43;;;;;;;34.98;20.45;;;;;;;8.01;69.79;98256.80;1826396;78;21235;-66
2021/04/02 04:40:15;;;;;;;35.30;19.85;;;;;;;8.03;69.78;98261.94;1796933;78;21874;-66
2021/04/02 04:42:45;;;;;;;33.73;17.82;;;;;;;8.06;69.89;98262.65;1797097;78;21021;-67
2021/04/02 04:45:16;;;;;;;43.83;19.02;;;;;;;8.10;69.75;98267.66;1796627;78;21195;-67
2021/04/02 04:47:43;;;;;;;29.27;17.48;;;;;;;8.12;69.85;98270.30;1796513;78;21414;-67
2021/04/02 04:50:13;;;;;;;36.88;19.07;;;;;;;8.17;70.16;98264.64;1825783;78;21884;-67
2021/04/02 04:52:55;;;;;;;33.05;19.27;;;;;;;8.22;69.76;98257.62;1825744;77;21908;-67
2021/04/02 04:55:22;;;;;;;31.85;19.23;;;;;;;8.28;69.68;98260.96;1825798;78;21421;-67
2021/04/02 04:57:51;;;;;;;33.85;17.57;;;;;;;8.34;69.42;98256.94;1825907;78;22660;-67
2021/04/02 05:00:19;;;;;;;35.38;18.05;;;;;;;8.42;69.65;98258.81;1795882;78;21838;-67
2021/04/02 05:02:47;;;;;;;32.88;20.20;;;;;;;8.49;69.25;98244.61;1795573;78;21145;-67
2021/04/02 05:05:31;;;;;;;31.07;17.23;;;;;;;8.55;69.28;98241.34;1825743;78;21121;-68
2021/04/02 05:08:04;;;;;;;30.12;18.35;;;;;;;8.65;69.17;98240.70;1796486;78;21125;-67
2021/04/02 05:10:32;;;;;;;30.50;16.57;;;;;;;8.75;69.39;98233.42;1826076;78;21855;-67
2021/04/02 05:13:01;;;;;;;35.68;18.40;;;;;;;8.84;69.24;98235.52;1825796;78;21133;-67
2021/04/02 05:15:28;;;;;;;38.35;19.98;;;;;;;8.90;68.84;98232.23;1825745;78;21153;-67
2021/04/02 05:17:56;;;;;;;40.98;20.48;;;;;;;8.97;68.75;98239.91;1825782;78;21927;-66
2021/04/02 05:20:40;;;;;;;38.92;19.05;;;;;;;9.05;68.52;98245.06;1825799;78;21380;-66
2021/04/02 05:23:11;;;;;;;29.65;16.55;;;;;;;9.10;68.36;98246.23;1825894;78;21165;-67
2021/04/02 05:25:40;;;;;;;29.20;16.83;;;;;;;9.15;68.24;98252.86;1826000;78;21157;-66
2021/04/02 05:28:08;;;;;;;30.92;17.57;;;;;;;9.17;68.19;98259.60;1825926;78;21442;-67
2021/04/02 05:30:37;;;;;;;38.92;19.35;;;;;;;9.19;68.40;98268.84;1825725;78;20979;-67
2021/04/02 05:33:06;;;;;;;32.80;20.00;;;;;;;9.20;68.53;98282.20;1825977;78;21328;-67
2021/04/02 05:35:33;;;;;;;33.28;18.17;;;;;;;9.20;68.53;98289.05;1827194;78;21416;-67
2021/04/02 05:38:02;;;;;;;34.53;19.05;;;;;;;9.20;68.74;98288.25;1800829;78;21411;-67
2021/04/02 05:40:30;;;;;;;32.33;17.73;;;;;;;9.20;68.93;98280.03;1828728;78;21401;-67
2021/04/02 05:43:24;;;;;;;29.85;16.62;;;;;;;9.22;68.81;98283.23;1828736;78;21116;-67
2021/04/02 05:45:54;;;;;;;37.03;17.67;;;;;;;9.28;68.88;98264.86;1776579;78;21301;-67
2021/04/02 05:48:22;;;;;;;44.18;17.87;;;;;;;9.37;68.57;98263.39;1829130;78;21357;-68
2021/04/02 05:50:54;;;;;;;35.85;16.80;;;;;;;9.44;68.29;98272.43;1801190;78;21722;-68
2021/04/02 05:53:21;;;;;;;40.85;18.70;;;;;;;9.47;68.06;98272.55;1828743;78;21122;-68
2021/04/02 05:55:51;;;;;;;35.17;19.20;;;;;;;9.48;68.30;98282.94;1828605;78;21171;-67
2021/04/02 05:58:19;;;;;;;66.80;26.15;;;;;;;9.49;68.41;98303.72;1828693;78;21156;-68
2021/04/02 06:00:46;;;;;;;33.98;17.80;;;;;;;9.49;68.52;98329.17;1828644;78;21433;-65
2021/04/02 06:03:15;;;;;;;32.90;17.27;;;;;;;9.46;68.47;98324.94;1828524;78;21851;-66
2021/04/02 06:05:43;;;;;;;35.58;17.77;;;;;;;9.47;68.67;98325.17;1828852;78;21401;-65
2021/04/02 06:08:11;;;;;;;40.25;18.77;;;;;;;9.48;69.40;98334.42;1828622;78;21388;-68
2021/04/02 06:10:39;;;;;;;33.63;18.02;;;;;;;9.52;69.35;98329.06;1828745;78;21468;-67
2021/04/02 06:13:07;;;;;;;28.90;16.57;;;;;;;9.54;69.64;98330.90;1828640;78;21408;-67
2021/04/02 06:15:36;;;;;;;32.85;18.32;;;;;;;9.56;69.84;98325.88;1828348;78;21129;-68
2021/04/02 06:18:12;;;;;;;30.68;17.77;;;;;;;9.60;70.27;98326.23;1828743;78;21868;-68
2021/04/02 06:24:37;;;;;;;32.45;17.37;;;;;;;9.67;71.00;98324.88;1830662;78;21014;-72
2021/04/02 06:27:09;;;;;;;36.90;20.00;;;;;;;9.76;71.85;98325.59;1814752;78;22432;-72
2021/04/02 06:29:42;;;;;;;41.23;20.43;;;;;;;9.80;71.87;98336.11;1830229;78;21855;-68
2021/04/02 06:32:15;;;;;;;38.80;21.60;;;;;;;9.80;71.97;98330.63;1828658;78;21785;-69
2021/04/02 06:34:47;;;;;;;43.68;24.27;;;;;;;9.81;72.25;98347.30;1825068;78;21445;-75
2021/04/02 06:37:16;;;;;;;52.85;24.15;;;;;;;9.77;72.40;98353.23;1793155;78;21106;-75
2021/04/02 06:39:51;;;;;;;49.53;23.32;;;;;;;9.71;73.07;98356.75;1824453;78;21331;-76
2021/04/02 06:42:29;;;;;;;42.33;21.75;;;;;;;9.67;74.12;98353.09;1824429;78;21117;-71
2021/04/02 06:45:02;;;;;;;41.23;22.62;;;;;;;9.58;75.96;98355.91;1792489;78;21432;-71
2021/04/02 06:47:37;;;;;;;40.15;21.93;;;;;;;9.48;76.81;98363.19;1824462;78;21457;-69
2021/04/02 07:41:52;;;;;;;64.25;38.23;;;;;;;8.67;96.17;98389.67;1812890;77;26921;-85
2021/04/02 07:44:20;;;;;;;58.78;33.92;;;;;;;8.64;96.73;98393.66;1759027;79;20998;-76
2021/04/02 07:47:10;;;;;;;53.83;31.82;;;;;;;8.68;97.19;98391.84;1775393;79;21429;-78
2021/04/02 07:49:42;;;;;;;56.60;32.78;;;;;;;8.74;97.71;98389.95;1781156;78;21065;-74
2021/04/02 07:52:09;;;;;;;61.37;35.23;;;;;;;8.83;98.96;98389.33;1782927;79;21631;-69
2021/04/02 08:04:11;;;;;;;60.03;36.33;;;;;;;9.08;98.94;98393.03;1804871;77;26311;-72
2021/04/02 08:06:38;;;;;;;60.28;36.30;;;;;;;9.04;98.66;98395.39;1781115;79;20994;-70
2021/04/02 08:09:07;;;;;;;63.13;38.53;;;;;;;9.05;98.73;98380.01;1765463;79;21371;-75
2021/04/02 08:11:39;;;;;;;59.85;34.98;;;;;;;9.05;98.61;98386.84;1763111;80;20938;-73
2021/04/02 08:14:09;;;;;;;60.98;35.17;;;;;;;9.04;98.43;98392.09;1781219;80;21029;-74
2021/04/02 08:16:51;;;;;;;48.30;28.95;;;;;;;9.03;98.45;98399.27;1778572;80;21017;-73
2021/04/02 08:19:28;;;;;;;39.45;23.55;;;;;;;8.98;98.47;98403.00;1762397;80;20974;-72
2021/04/02 08:22:02;;;;;;;41.08;23.02;;;;;;;8.86;97.87;98396.88;1760214;80;21409;-69
2021/04/02 08:24:36;;;;;;;44.65;26.57;;;;;;;8.72;97.65;98401.80;1768484;80;20942;-69
2021/04/02 08:27:06;;;;;;;61.75;33.63;;;;;;;8.64;98.07;98403.24;1752205;80;21009;-68
2021/04/02 08:29:33;;;;;;;71.60;40.17;;;;;;;8.60;98.60;98405.27;1773780;80;21164;-67
2021/04/02 08:32:05;;;;;;;61.92;33.90;;;;;;;8.55;98.54;98412.30;1773335;80;20930;-68
2021/04/02 08:34:35;;;;;;;60.83;33.30;;;;;;;8.50;98.56;98410.31;1774548;80;21110;-68
2021/04/02 08:37:05;;;;;;;61.73;35.05;;;;;;;8.41;98.16;98410.92;1758462;80;20998;-68
2021/04/02 08:39:34;;;;;;;57.48;31.68;;;;;;;8.33;97.90;98418.02;1771005;80;20927;-68
2021/04/02 08:42:06;;;;;;;49.40;28.65;;;;;;;8.24;97.75;98417.22;1761286;80;21101;-69
2021/04/02 08:44:38;;;;;;;;;;;;;;;8.17;97.82;98417.73;1761547;80;21050;-69
2021/04/02 08:47:16;;;;;;;47.58;24.80;;;;;;;8.15;98.03;98418.63;1756729;80;21270;-67
2021/04/02 08:49:53;;;;;;;50.23;25.92;;;;;;;8.11;98.13;98425.06;1748243;80;21153;-69
2021/04/02 08:52:28;;;;;;;53.70;27.77;;;;;;;8.04;97.70;98425.59;1756102;80;21132;-68
2021/04/02 08:55:02;;;;;;;43.70;26.00;;;;;;;7.98;97.50;98432.36;1745336;80;21551;-69
2021/04/02 08:57:32;;;;;;;39.30;23.07;;;;;;;7.93;97.52;98438.80;1761810;80;21108;-68
2021/04/02 09:00:05;;;;;;;42.00;23.47;;;;;;;7.86;97.16;98431.67;1767664;79;21559;-67
2021/04/02 09:02:32;;;;;;;38.28;20.77;;;;;;;7.79;96.90;98435.45;1762460;79;21074;-65
2021/04/02 09:05:02;;;;;;;35.30;19.27;;;;;;;7.77;96.69;98436.91;1745364;80;21073;-66
2021/04/02 09:07:39;;;;;;;33.90;18.42;;;;;;;7.70;96.10;98427.84;1722097;82;21072;-66
2021/04/02 09:10:14;;;;;;;30.20;18.12;;;;;;;7.69;96.17;98428.96;1746579;81;21033;-66
2021/04/02 09:12:50;;;;;;;27.02;16.00;;;;;;;7.63;95.54;98433.79;1723892;81;21379;-68
2021/04/02 09:15:29;;;;;;;19.85;13.18;;;;;;;7.58;95.26;98438.61;1743524;81;21160;-66
2021/04/02 09:18:18;;;;;;;20.72;13.50;;;;;;;7.56;95.01;98438.13;1742238;81;21534;-67
2021/04/02 09:20:47;;;;;;;19.23;12.93;;;;;;;7.56;94.93;98432.67;1746159;81;21143;-66
2021/04/02 09:23:15;;;;;;;17.87;11.57;;;;;;;7.57;94.95;98441.10;1752466;80;21049;-66
2021/04/02 09:25:45;;;;;;;17.90;12.75;;;;;;;7.60;94.74;98436.36;1718421;81;21386;-66
2021/04/02 09:28:13;;;;;;;16.02;11.33;;;;;;;7.64;94.80;98441.42;1743447;81;21097;-67
2021/04/02 09:30:41;;;;;;;17.52;10.58;;;;;;;7.71;94.25;98448.56;1741616;81;21116;-67
2021/04/02 09:33:09;;;;;;;16.52;11.30;;;;;;;7.75;93.49;98448.72;1746139;81;20997;-67
2021/04/02 09:35:37;;;;;;;15.72;9.98;;;;;;;7.78;92.87;98452.97;1746136;81;20938;-67
2021/04/02 09:38:05;;;;;;;11.80;8.20;;;;;;;7.81;92.99;98456.42;1723802;81;22129;-69
2021/04/02 09:40:32;;;;;;;11.90;8.13;;;;;;;7.86;92.13;98465.83;1743810;81;21001;-70
2021/04/02 09:43:03;;;;;;;8.30;6.47;;;;;;;7.77;89.66;98463.66;1699380;82;21001;-71
2021/04/02 09:45:30;;;;;;;11.78;7.17;;;;;;;7.69;89.60;98463.67;1748144;82;21131;-69
2021/04/02 09:47:58;;;;;;;8.90;6.87;;;;;;;7.61;90.04;98471.55;1744870;81;21162;-75
2021/04/02 09:50:26;;;;;;;10.20;6.67;;;;;;;7.53;89.67;98467.45;1743025;81;21902;-76
2021/04/02 09:52:53;;;;;;;6.15;5.22;;;;;;;7.44;89.82;98466.67;1744584;81;21187;-73
2021/04/02 09:55:22;;;;;;;7.67;5.05;;;;;;;7.41;90.51;98468.68;1741686;81;21137;-83
2021/04/02 09:57:50;;;;;;;4.83;3.87;;;;;;;7.37;89.41;98464.98;1748847;80;21140;-78
2021/04/02 10:00:20;;;;;;;5.12;3.75;;;;;;;7.30;88.82;98479.11;1738598;80;21134;-79
2021/04/02 10:02:48;;;;;;;3.58;3.27;;;;;;;7.22;88.59;98483.44;1758243;80;21505;-69
2021/04/02 10:05:17;;;;;;;9.65;5.33;;;;;;;7.15;88.04;98474.92;1747519;80;21041;-75
2021/04/02 10:07:47;;;;;;;4.65;3.67;;;;;;;7.08;87.35;98477.31;1768472;80;20959;-70
2021/04/02 10:10:17;;;;;;;5.05;3.15;;;;;;;7.03;87.65;98478.02;1767644;80;21172;-69
2021/04/02 10:12:44;;;;;;;5.17;3.12;;;;;;;6.90;86.85;98475.70;1754299;80;21153;-67
2021/04/02 10:15:15;;;;;;;4.65;3.47;;;;;;;6.81;87.37;98482.49;1757318;80;21370;-67
2021/04/02 10:17:42;;;;;;;5.12;3.98;;;;;;;6.75;87.48;98485.12;1757016;80;21077;-70
2021/04/02 10:20:11;;;;;;;4.90;3.60;;;;;;;6.67;88.03;98488.62;1768382;80;21575;-68
2021/04/02 10:22:39;;;;;;;5.80;4.53;;;;;;;6.59;88.29;98487.47;1752628;80;21112;-72
2021/04/02 10:25:08;;;;;;;4.97;3.83;;;;;;;6.54;88.53;98486.80;1759573;80;21032;-73
2021/04/02 10:27:36;;;;;;;5.75;4.17;;;;;;;6.46;88.58;98486.20;1749611;80;21444;-73
2021/04/02 10:30:05;;;;;;;6.30;5.10;;;;;;;6.43;89.23;98492.28;1762656;80;21049;-67
2021/04/02 10:32:34;;;;;;;3.85;2.85;;;;;;;6.37;88.31;98494.91;1736664;80;21090;-69
2021/04/02 10:35:04;;;;;;;2.92;1.98;;;;;;;6.31;88.42;98499.71;1747193;80;21196;-70
2021/04/02 10:37:31;;;;;;;2.62;2.33;;;;;;;6.21;88.02;98502.14;1766933;80;21105;-72
2021/04/02 10:40:01;;;;;;;5.37;3.20;;;;;;;6.14;88.07;98503.70;1763398;80;21433;-68
2021/04/02 10:42:29;;;;;;;3.50;2.92;;;;;;;6.08;87.84;98505.75;1758426;80;21124;-68
2021/04/02 10:44:57;;;;;;;3.55;2.85;;;;;;;6.03;88.29;98511.89;1759050;80;21048;-69
2021/04/02 10:47:24;;;;;;;3.75;2.72;;;;;;;5.96;88.48;98510.41;1737819;81;21142;-68
2021/04/02 10:49:52;;;;;;;5.45;2.90;;;;;;;5.90;88.83;98507.55;1747443;80;21049;-66
2021/04/02 10:52:20;;;;;;;5.83;4.37;;;;;;;5.86;89.26;98509.26;1737535;81;21289;-68
2021/04/02 10:54:50;;;;;;;8.18;5.45;;;;;;;5.88;90.30;98512.48;1737007;82;21123;-68
2021/04/02 10:57:19;;;;;;;5.78;4.10;;;;;;;5.92;90.01;98516.78;1746985;80;21608;-68
2021/04/02 10:59:48;;;;;;;11.85;5.97;;;;;;;5.90;89.05;98522.54;1741529;81;21196;-66
2021/04/02 11:02:16;;;;;;;6.62;4.35;;;;;;;5.84;88.55;98518.30;1745430;82;21075;-67
2021/04/02 11:04:43;;;;;;;8.60;4.20;;;;;;;5.81;88.88;98511.30;1750623;80;22297;-68
2021/04/02 11:07:11;;;;;;;3.22;2.10;;;;;;;5.74;88.66;98516.41;1763598;80;21021;-69
2021/04/02 11:09:40;;;;;;;7.83;3.60;;;;;;;5.70;88.83;98515.41;1761683;80;21108;-69
2021/04/02 11:12:09;;;;;;;6.65;3.40;;;;;;;5.70;90.18;98514.05;1755374;80;21160;-68
2021/04/02 11:14:37;;;;;;;4.67;1.92;;;;;;;5.73;89.03;98506.06;1758164;80;21022;-72
2021/04/02 11:17:05;;;;;;;3.45;1.42;;;;;;;5.63;88.41;98505.75;1751993;80;21267;-67
2021/04/02 11:19:33;;;;;;;2.92;1.40;;;;;;;5.63;88.41;98505.75;1760773;80;22601;-68
2021/04/02 11:22:01;;;;;;;0.82;0.70;;;;;;;5.61;88.54;98508.53;1738222;80;21198;-67
2021/04/02 11:24:30;;;;;;;4.97;1.60;;;;;;;5.63;89.03;98518.56;1749770;80;21639;-67
2021/04/02 11:26:58;;;;;;;3.37;1.62;;;;;;;5.70;88.77;98514.05;1742856;80;21167;-68
2021/04/02 11:29:26;;;;;;;3.05;1.87;;;;;;;5.70;88.77;98514.05;1753317;80;21204;-67
2021/04/02 11:31:54;;;;;;;5.08;2.50;;;;;;;5.73;88.07;98523.77;1760400;80;21169;-67
2021/04/02 11:34:22;;;;;;;10.23;3.87;;;;;;;5.70;87.34;98523.58;1738460;80;21196;-66
2021/04/02 11:36:50;;;;;;;6.12;3.22;;;;;;;5.70;87.34;98523.58;1754690;80;21149;-66
2021/04/02 11:39:20;;;;;;;7.92;3.47;;;;;;;5.64;87.80;98526.97;1745656;80;21657;-69
2021/04/02 11:41:49;;;;;;;3.92;3.20;;;;;;;5.57;87.68;98536.13;1742268;80;21208;-71
2021/04/02 11:44:17;;;;;;;3.27;2.22;;;;;;;5.57;87.68;98536.13;1744984;80;21243;-68
2021/04/02 11:46:46;;;;;;;8.05;4.87;;;;;;;5.48;87.72;98536.05;1718766;81;21701;-68
2021/04/02 11:49:14;;;;;;;7.58;4.45;;;;;;;5.48;87.72;98536.05;1731522;81;21234;-67
2021/04/02 11:51:42;;;;;;;2.92;2.00;;;;;;;5.46;87.91;98529.30;1748366;80;21194;-68
2021/04/02 11:54:09;;;;;;;4.10;2.27;;;;;;;5.42;87.71;98537.27;1752031;80;21379;-68
2021/04/02 11:56:38;;;;;;;4.62;2.75;;;;;;;5.43;88.14;98542.16;1745953;80;21184;-68
2021/04/02 11:59:09;;;;;;;4.07;2.30;;;;;;;5.47;88.37;98539.88;1674522;83;21946;-67
2021/04/02 12:01:36;;;;;;;2.30;1.77;;;;;;;5.53;88.80;98541.93;1688009;83;21229;-66
2021/04/02 12:04:11;;;;;;;2.47;1.55;;;;;;;5.55;88.44;98550.59;1682104;83;21042;-67
2021/04/02 12:06:41;;;;;;;2.42;1.70;;;;;;;5.51;87.12;98550.41;1732670;81;21373;-66
2021/04/02 12:09:11;;;;;;;3.50;2.25;;;;;;;5.51;87.12;98550.41;1726546;81;21269;-67
2021/04/02 12:11:40;;;;;;;5.42;2.55;;;;;;;5.46;87.36;98553.80;1748975;80;21042;-67
2021/04/02 12:14:08;;;;;;;3.85;2.83;;;;;;;5.39;87.04;98563.73;1747776;80;21027;-67
2021/04/02 12:16:37;;;;;;;3.77;2.75;;;;;;;5.39;87.04;98563.73;1730562;80;21193;-69
2021/04/02 12:19:06;;;;;;;4.75;2.90;;;;;;;5.37;87.39;98559.71;1767230;80;21492;-66
2021/04/02 12:21:34;;;;;;;5.10;2.75;;;;;;;5.38;88.02;98564.04;1755498;80;20955;-68
2021/04/02 12:24:03;;;;;;;3.67;2.30;;;;;;;5.42;88.50;98556.88;1754135;80;21157;-68
2021/04/02 12:26:32;;;;;;;3.37;1.95;;;;;;;5.44;87.87;98561.46;1757450;80;21129;-67
2021/04/02 12:29:00;;;;;;;3.60;2.08;;;;;;;5.44;87.87;98561.46;1748463;80;21125;-68
2021/04/02 12:31:29;;;;;;;7.65;3.70;;;;;;;5.44;87.64;98562.83;1735217;81;22878;-67
2021/04/02 12:33:57;;;;;;;4.17;3.17;;;;;;;5.40;87.38;98567.27;1710374;82;21148;-69
2021/04/02 12:36:26;;;;;;;4.50;2.77;;;;;;;5.40;87.38;98567.27;1731167;81;21131;-67
2021/04/02 12:38:54;;;;;;;3.83;2.67;;;;;;;5.40;87.28;98563.19;1742561;80;21061;-68
2021/04/02 12:41:23;;;;;;;5.15;3.10;;;;;;;5.34;87.26;98584.81;1753452;80;21083;-68
2021/04/02 12:43:52;;;;;;;6.78;3.25;;;;;;;5.26;87.50;98583.05;1741262;80;21214;-66
2021/04/02 12:46:21;;;;;;;12.30;6.53;;;;;;;5.15;87.66;98578.96;1745336;80;21229;-67
2021/04/02 12:48:49;;;;;;;5.65;4.03;;;;;;;5.15;87.66;98578.96;1740925;80;21169;-66
2021/04/02 12:51:17;;;;;;;5.35;2.87;;;;;;;5.15;88.15;98580.33;1751376;80;21668;-66
2021/04/02 12:53:46;;;;;;;4.50;2.85;;;;;;;5.17;88.07;98587.62;1748306;80;21236;-67